Airport View

Enter AWOS ICAO identifier for current METAR.

ex. KFNL

KJZI 221810Z AUTO 15008G15KT 130V200 10SM CLR 32/25 A3002 RMK AO2 LTG DSNT SE AND SW

22 Jul 2019 18:11

Frequency: 123.775

Phone: 843-559-3123

Other Area AWOS: KCHS - KLRO - KDYB - KMKS

TAF KCHS 221721Z 2218/2318 23008KT P6SM SCT040 FM222000 19012G18KT P6SM SCT040 FM230200 20007KT P6SM FEW050 SCT250 FM231500 23010KT P6SM SCT040